createdAt,value
2018-09-21T00:00:24.066Z,9.70
2018-09-21T00:02:51.742Z,13.27
2018-09-21T00:05:19.474Z,9.53
2018-09-21T00:07:47.175Z,13.10
2018-09-21T00:10:14.828Z,11.67
2018-09-21T00:12:42.523Z,12.40
2018-09-21T00:15:10.223Z,13.53
2018-09-21T00:17:37.846Z,9.07
2018-09-21T00:20:05.559Z,11.13
2018-09-21T00:22:33.251Z,11.10
2018-09-21T00:25:00.935Z,13.07
2018-09-21T00:27:29.683Z,11.07
2018-09-21T00:29:57.370Z,12.10
2018-09-21T00:32:25.047Z,9.77
2018-09-21T00:34:52.759Z,10.87
2018-09-21T00:37:20.432Z,12.70
2018-09-21T00:39:48.135Z,10.70
2018-09-21T00:42:15.855Z,11.13
2018-09-21T00:44:43.566Z,10.50
2018-09-21T00:47:11.238Z,12.13
2018-09-21T00:49:39.047Z,19.63
2018-09-21T00:52:07.211Z,10.90
2018-09-21T00:54:34.962Z,13.83
2018-09-21T00:57:02.699Z,15.33
2018-09-21T00:59:30.590Z,10.53
2018-09-21T01:01:58.291Z,10.10
2018-09-21T01:04:28.972Z,11.57
2018-09-21T01:06:56.659Z,16.13
2018-09-21T01:09:24.322Z,18.33
2018-09-21T01:11:52.012Z,12.80
2018-09-21T01:14:19.695Z,10.33
2018-09-21T01:16:47.396Z,11.10
2018-09-21T01:19:15.113Z,10.90
2018-09-21T01:21:42.766Z,12.40
2018-09-21T01:24:10.379Z,12.03
2018-09-21T01:26:38.060Z,12.70
2018-09-21T01:29:05.754Z,13.13
2018-09-21T01:31:33.463Z,13.00
2018-09-21T01:34:01.167Z,12.60
2018-09-21T01:36:28.915Z,10.67
2018-09-21T01:38:56.679Z,10.73
2018-09-21T01:41:24.301Z,11.47
2018-09-21T01:43:51.983Z,32.03
2018-09-21T01:46:19.735Z,14.50
2018-09-21T01:48:47.494Z,10.10
2018-09-21T01:51:15.254Z,12.37
2018-09-21T01:53:42.982Z,10.63
2018-09-21T01:56:10.682Z,9.80
2018-09-21T01:58:38.355Z,15.13
2018-09-21T02:01:06.031Z,11.70
2018-09-21T02:03:37.134Z,11.20
2018-09-21T02:06:04.814Z,16.70
2018-09-21T02:08:32.596Z,11.83
2018-09-21T02:11:00.379Z,8.97
2018-09-21T02:13:28.099Z,9.63
2018-09-21T02:15:55.850Z,13.70
2018-09-21T02:18:23.470Z,10.00
2018-09-21T02:20:51.204Z,10.87
2018-09-21T02:23:18.846Z,12.20
2018-09-21T02:25:46.555Z,15.10
2018-09-21T02:28:14.219Z,10.63
2018-09-21T02:30:41.964Z,10.70
2018-09-21T02:33:09.642Z,11.33
2018-09-21T02:35:37.307Z,12.20
2018-09-21T02:38:05.311Z,13.33
2018-09-21T02:40:33.031Z,12.53
2018-09-21T02:43:00.719Z,10.23
2018-09-21T02:45:28.459Z,12.43
2018-09-21T02:47:56.084Z,13.00
2018-09-21T02:50:23.707Z,12.07
2018-09-21T02:52:51.343Z,10.30
2018-09-21T02:55:18.968Z,14.27
2018-09-21T02:57:46.699Z,12.03
2018-09-21T03:00:14.357Z,13.30
2018-09-21T03:02:42.064Z,10.43
2018-09-21T03:05:09.831Z,11.87
2018-09-21T03:07:37.514Z,10.23
2018-09-21T03:10:05.226Z,10.50
2018-09-21T03:12:32.887Z,10.00
2018-09-21T03:15:00.619Z,9.17
2018-09-21T03:17:28.413Z,13.47
2018-09-21T03:19:56.174Z,10.30
2018-09-21T03:22:23.822Z,15.50
2018-09-21T03:24:51.454Z,14.93
2018-09-21T03:27:19.212Z,14.27
2018-09-21T03:29:46.954Z,13.40
2018-09-21T03:32:14.623Z,13.87
2018-09-21T03:34:42.311Z,9.93
2018-09-21T03:37:09.954Z,10.67
2018-09-21T03:39:37.679Z,14.20
2018-09-21T03:42:05.414Z,14.87
2018-09-21T03:44:33.124Z,12.40
2018-09-21T03:47:01.875Z,16.30
2018-09-21T03:49:29.536Z,10.30
2018-09-21T03:51:57.156Z,12.80
2018-09-21T03:54:24.898Z,13.27
2018-09-21T03:56:52.511Z,10.20
2018-09-21T03:59:20.130Z,14.20
2018-09-21T04:01:47.797Z,9.83
2018-09-21T04:04:18.595Z,13.80
2018-09-21T04:06:46.346Z,12.20
2018-09-21T04:09:14.042Z,11.03
2018-09-21T04:11:41.714Z,18.00
2018-09-21T04:14:09.404Z,11.80
2018-09-21T04:16:37.098Z,11.03
2018-09-21T04:19:04.864Z,12.43
2018-09-21T04:21:32.555Z,13.57
2018-09-21T04:24:00.281Z,12.93
2018-09-21T04:26:27.994Z,12.90
2018-09-21T04:28:55.690Z,10.50
2018-09-21T04:31:23.366Z,12.40
2018-09-21T04:33:51.035Z,15.27
2018-09-21T04:36:18.655Z,17.43
2018-09-21T04:38:46.272Z,13.23
2018-09-21T04:41:13.993Z,14.43
2018-09-21T04:43:41.686Z,13.17
2018-09-21T04:46:09.376Z,13.00
2018-09-21T04:48:37.067Z,21.67
2018-09-21T04:51:04.822Z,11.60
2018-09-21T04:53:32.592Z,10.67
2018-09-21T04:56:00.296Z,13.93
2018-09-21T04:58:27.956Z,14.10
2018-09-21T05:00:55.584Z,15.43
2018-09-21T05:03:23.335Z,10.57
2018-09-21T05:05:51.059Z,12.30
2018-09-21T05:08:18.811Z,11.10
2018-09-21T05:10:46.488Z,13.30
2018-09-21T05:13:14.243Z,13.23
2018-09-21T05:15:41.923Z,16.90
2018-09-21T05:18:13.370Z,14.70
2018-09-21T05:20:41.210Z,14.50
2018-09-21T05:23:08.927Z,14.47
2018-09-21T05:25:36.640Z,13.47
2018-09-21T05:28:04.663Z,15.40
2018-09-21T05:30:32.378Z,13.07
2018-09-21T05:33:00.068Z,18.20
2018-09-21T05:35:27.671Z,13.97
2018-09-21T05:37:55.338Z,12.10
2018-09-21T05:40:23.027Z,14.53
2018-09-21T05:42:50.788Z,17.63
2018-09-21T05:45:18.527Z,15.50
2018-09-21T05:47:46.192Z,12.60
2018-09-21T05:50:13.891Z,18.67
2018-09-21T05:52:41.555Z,13.33
2018-09-21T05:55:09.225Z,15.40
2018-09-21T05:57:36.947Z,12.10
2018-09-21T06:00:04.715Z,15.77
2018-09-21T06:02:32.457Z,21.13
2018-09-21T06:05:05.218Z,15.33
2018-09-21T06:07:33.387Z,14.17
2018-09-21T06:10:01.059Z,15.20
2018-09-21T06:12:28.739Z,14.60
2018-09-21T06:14:56.462Z,15.87
2018-09-21T06:17:24.288Z,14.03
2018-09-21T18:17:36.067Z,6.00
2018-09-21T18:20:03.858Z,6.00
2018-09-21T18:22:31.518Z,4.47
2018-09-21T18:24:59.254Z,7.07
2018-09-21T18:27:29.302Z,4.10
2018-09-21T18:29:56.979Z,5.30
2018-09-21T18:32:24.725Z,4.33
2018-09-21T18:34:52.290Z,4.03
2018-09-21T18:37:20.036Z,4.83
2018-09-21T18:39:47.777Z,5.00
2018-09-21T18:42:15.589Z,4.67
2018-09-21T18:44:43.406Z,5.43
2018-09-21T18:47:11.050Z,4.77
2018-09-21T18:49:39.108Z,5.23
2018-09-21T18:52:06.905Z,4.47
2018-09-21T18:54:34.685Z,3.90
2018-09-21T18:57:02.408Z,4.67
2018-09-21T18:59:31.098Z,4.80
2018-09-21T19:01:59.146Z,6.93
2018-09-21T19:04:26.858Z,4.10
2018-09-21T19:06:55.031Z,9.00
2018-09-21T19:09:23.037Z,3.83
2018-09-21T19:11:51.315Z,5.33
2018-09-21T19:14:19.767Z,4.57
2018-09-21T19:16:47.978Z,3.73
2018-09-21T19:19:15.924Z,4.07
2018-09-21T19:21:45.157Z,3.90
2018-09-21T19:24:14.351Z,4.43
2018-09-21T19:26:44.379Z,4.57
2018-09-21T19:29:13.995Z,4.23
2018-09-21T19:31:44.399Z,4.33
2018-09-21T19:34:14.379Z,31.93
2018-09-21T19:36:44.489Z,8.50
2018-09-21T19:39:14.150Z,4.63
2018-09-21T19:41:44.042Z,5.50
2018-09-21T19:44:13.906Z,3.97
2018-09-21T19:46:43.692Z,5.13
2018-09-21T19:49:13.532Z,4.00
2018-09-21T19:51:43.127Z,6.00
2018-09-21T19:54:13.201Z,6.33
2018-09-21T19:56:43.115Z,5.37
2018-09-21T19:59:12.673Z,4.90
2018-09-21T20:01:42.094Z,4.40
2018-09-21T20:04:11.966Z,4.63
2018-09-21T20:06:41.928Z,4.50
2018-09-21T20:09:12.104Z,5.37
2018-09-21T20:11:42.045Z,4.57
2018-09-21T20:14:11.781Z,3.80
2018-09-21T20:16:39.784Z,6.57
2018-09-21T20:19:07.510Z,4.43
2018-09-21T20:21:35.189Z,3.70
2018-09-21T20:24:02.879Z,5.53
2018-09-21T20:26:30.575Z,4.63
2018-09-21T20:28:58.428Z,4.33
2018-09-21T20:31:31.874Z,4.90
2018-09-21T20:33:59.547Z,4.77
2018-09-21T20:36:27.336Z,6.73
2018-09-21T20:38:55.082Z,6.43
2018-09-21T20:41:22.668Z,4.53
2018-09-21T20:43:50.330Z,3.70
2018-09-21T20:46:17.934Z,4.70
2018-09-21T20:48:45.634Z,4.00
2018-09-21T20:51:13.251Z,5.40
2018-09-21T20:53:40.863Z,5.70
2018-09-21T20:56:08.498Z,8.00
2018-09-21T20:58:36.113Z,5.77
2018-09-21T21:01:03.787Z,6.50
2018-09-21T21:03:31.438Z,4.30
2018-09-21T21:05:59.092Z,7.30
2018-09-21T21:08:26.817Z,3.80
2018-09-21T21:10:54.494Z,4.47
2018-09-21T21:13:22.272Z,5.40
2018-09-21T21:15:50.868Z,4.47
2018-09-21T21:18:18.867Z,4.53
2018-09-21T21:20:46.583Z,6.33
2018-09-21T21:23:18.019Z,8.77
2018-09-21T21:25:45.700Z,4.87
2018-09-21T21:28:13.426Z,7.40
2018-09-21T21:30:41.058Z,5.63
2018-09-21T21:33:08.759Z,6.90
2018-09-21T21:35:36.403Z,4.03
2018-09-21T21:38:04.047Z,4.83
2018-09-21T21:40:31.707Z,7.03
2018-09-21T21:42:59.322Z,6.47
2018-09-21T21:45:26.946Z,3.90
2018-09-21T21:47:54.643Z,4.63
2018-09-21T21:50:22.275Z,4.60
2018-09-21T21:52:49.946Z,4.00
2018-09-21T21:55:17.530Z,6.73
2018-09-21T21:57:45.200Z,6.27
2018-09-21T22:00:12.976Z,4.37
2018-09-21T22:02:40.651Z,5.83
2018-09-21T22:05:08.347Z,4.00
2018-09-21T22:07:37.246Z,10.00
2018-09-21T22:10:06.878Z,6.13
2018-09-21T22:12:40.087Z,5.50
2018-09-21T22:15:13.374Z,4.00
2018-09-21T22:17:40.978Z,8.37
2018-09-21T22:20:08.751Z,4.83
2018-09-21T22:22:36.434Z,9.97
2018-09-21T22:25:04.221Z,6.07
2018-09-21T22:27:31.940Z,5.47
2018-09-21T22:29:59.620Z,4.07
2018-09-21T22:32:27.250Z,7.77
2018-09-21T22:34:54.915Z,6.17
2018-09-21T22:37:26.818Z,10.40
2018-09-21T22:39:54.533Z,3.90
2018-09-21T22:42:22.279Z,8.27
2018-09-21T22:44:50.057Z,5.27
2018-09-21T22:47:17.836Z,4.57
2018-09-21T22:49:45.523Z,6.60
2018-09-21T22:52:13.182Z,5.33
2018-09-21T22:54:40.826Z,13.83
2018-09-21T22:57:08.462Z,5.60
2018-09-21T22:59:36.102Z,4.97
2018-09-21T23:02:03.805Z,7.07
2018-09-21T23:04:34.779Z,5.20
2018-09-21T23:07:02.530Z,5.00
2018-09-21T23:09:30.227Z,15.23
2018-09-21T23:11:57.903Z,4.60
2018-09-21T23:14:25.550Z,3.90
2018-09-21T23:16:56.342Z,5.10
2018-09-21T23:19:24.002Z,4.93
2018-09-21T23:21:51.698Z,5.70
2018-09-21T23:24:19.402Z,7.43
2018-09-21T23:26:47.072Z,4.47
2018-09-21T23:29:14.755Z,5.27
2018-09-21T23:31:46.181Z,4.23
2018-09-21T23:34:14.021Z,5.10
2018-09-21T23:36:41.726Z,6.33
2018-09-21T23:39:10.178Z,8.03
2018-09-21T23:41:38.477Z,7.03
2018-09-21T23:44:06.307Z,5.30
2018-09-21T23:46:33.999Z,4.73
2018-09-21T23:49:01.603Z,5.43
2018-09-21T23:51:32.938Z,6.10
2018-09-21T23:54:00.585Z,7.03
2018-09-21T23:56:28.226Z,7.40
2018-09-21T23:58:55.881Z,7.50
